sensor_id;sensor_type;location;lat;lon;timestamp;pressure;altitude;pressure_sealevel;temperature;humidity
51928;BME280;37953;52.806;18.270;2024-02-14T00:01:14;101055.88;;;5.23;100.00
51928;BME280;37953;52.806;18.270;2024-02-14T00:03:41;101058.38;;;5.22;100.00
51928;BME280;37953;52.806;18.270;2024-02-14T00:06:07;101057.53;;;5.21;100.00
51928;BME280;37953;52.806;18.270;2024-02-14T00:08:34;101059.25;;;5.22;100.00
51928;BME280;37953;52.806;18.270;2024-02-14T00:11:00;101059.22;;;5.21;100.00
51928;BME280;37953;52.806;18.270;2024-02-14T00:13:26;101055.72;;;5.19;100.00
51928;BME280;37953;52.806;18.270;2024-02-14T00:15:52;101059.03;;;5.16;100.00
51928;BME280;37953;52.806;18.270;2024-02-14T00:18:18;101058.13;;;5.14;100.00
51928;BME280;37953;52.806;18.270;2024-02-14T00:20:45;101063.25;;;5.13;100.00
51928;BME280;37953;52.806;18.270;2024-02-14T00:23:11;101053.81;;;5.13;100.00
51928;BME280;37953;52.806;18.270;2024-02-14T00:25:37;101054.59;;;5.12;100.00
51928;BME280;37953;52.806;18.270;2024-02-14T00:28:04;101058.81;;;5.10;100.00
51928;BME280;37953;52.806;18.270;2024-02-14T00:30:31;101058.75;;;5.07;100.00
51928;BME280;37953;52.806;18.270;2024-02-14T00:33:20;101058.81;;;5.10;100.00
51928;BME280;37953;52.806;18.270;2024-02-14T00:35:47;101059.53;;;5.04;100.00
51928;BME280;37953;52.806;18.270;2024-02-14T00:38:14;101064.59;;;5.03;100.00
51928;BME280;37953;52.806;18.270;2024-02-14T00:40:43;101057.72;;;5.02;100.00
51928;BME280;37953;52.806;18.270;2024-02-14T00:43:09;101066.25;;;5.01;100.00
51928;BME280;37953;52.806;18.270;2024-02-14T00:45:36;101066.19;;;4.99;100.00
51928;BME280;37953;52.806;18.270;2024-02-14T00:48:04;101067.03;;;4.98;100.00
51928;BME280;37953;52.806;18.270;2024-02-14T00:50:30;101064.38;;;4.97;100.00
51928;BME280;37953;52.806;18.270;2024-02-14T00:52:56;101074.63;;;4.95;100.00
51928;BME280;37953;52.806;18.270;2024-02-14T00:55:22;101072.88;;;4.94;100.00
51928;BME280;37953;52.806;18.270;2024-02-14T00:57:49;101077.16;;;4.94;100.00
51928;BME280;37953;52.806;18.270;2024-02-14T01:00:15;101069.47;;;4.95;100.00
51928;BME280;37953;52.806;18.270;2024-02-14T01:02:43;101069.44;;;4.94;100.00
51928;BME280;37953;52.806;18.270;2024-02-14T01:05:09;101078.09;;;4.96;100.00
51928;BME280;37953;52.806;18.270;2024-02-14T01:07:36;101072.94;;;4.96;100.00
51928;BME280;37953;52.806;18.270;2024-02-14T01:10:02;101068.72;;;4.98;100.00
51928;BME280;37953;52.806;18.270;2024-02-14T01:12:29;101067.84;;;4.97;100.00
51928;BME280;37953;52.806;18.270;2024-02-14T01:14:55;101064.38;;;4.97;100.00
51928;BME280;37953;52.806;18.270;2024-02-14T01:17:21;101070.47;;;4.99;100.00
51928;BME280;37953;52.806;18.270;2024-02-14T01:19:47;101067.03;;;4.98;100.00
51928;BME280;37953;52.806;18.270;2024-02-14T01:22:14;101073.88;;;4.98;100.00
51928;BME280;37953;52.806;18.270;2024-02-14T01:24:44;101069.69;;;5.01;100.00
51928;BME280;37953;52.806;18.270;2024-02-14T01:27:11;101073.16;;;5.02;100.00
51928;BME280;37953;52.806;18.270;2024-02-14T01:29:36;101074.03;;;5.02;100.00
51928;BME280;37953;52.806;18.270;2024-02-14T01:32:03;101078.34;;;5.03;100.00
51928;BME280;37953;52.806;18.270;2024-02-14T01:34:30;101074.09;;;5.04;100.00
51928;BME280;37953;52.806;18.270;2024-02-14T01:36:56;101066.41;;;5.05;100.00
51928;BME280;37953;52.806;18.270;2024-02-14T01:39:22;101084.41;;;5.04;100.00
51928;BME280;37953;52.806;18.270;2024-02-14T01:41:48;101089.56;;;5.04;100.00
51928;BME280;37953;52.806;18.270;2024-02-14T01:44:15;101088.66;;;5.03;100.00
51928;BME280;37953;52.806;18.270;2024-02-14T01:46:52;101083.56;;;5.05;100.00
51928;BME280;37953;52.806;18.270;2024-02-14T01:49:19;101082.63;;;5.03;100.00
51928;BME280;37953;52.806;18.270;2024-02-14T01:51:46;101087.72;;;5.01;100.00
51928;BME280;37953;52.806;18.270;2024-02-14T01:54:12;101079.97;;;5.00;100.00
51928;BME280;37953;52.806;18.270;2024-02-14T01:56:40;101086.91;;;5.02;100.00
51928;BME280;37953;52.806;18.270;2024-02-14T01:59:07;101078.34;;;5.03;100.00
51928;BME280;37953;52.806;18.270;2024-02-14T02:01:37;101086.97;;;5.04;100.00
51928;BME280;37953;52.806;18.270;2024-02-14T02:04:04;101081.69;;;5.01;100.00
51928;BME280;37953;52.806;18.270;2024-02-14T02:06:35;101083.50;;;5.03;100.00
51928;BME280;37953;52.806;18.270;2024-02-14T02:09:00;101083.47;;;5.02;100.00
51928;BME280;37953;52.806;18.270;2024-02-14T02:11:27;101084.41;;;5.04;100.00
51928;BME280;37953;52.806;18.270;2024-02-14T02:13:53;101083.47;;;5.02;100.00
51928;BME280;37953;52.806;18.270;2024-02-14T02:16:19;101076.63;;;5.02;100.00
51928;BME280;37953;52.806;18.270;2024-02-14T02:18:46;101076.53;;;5.01;100.00
51928;BME280;37953;52.806;18.270;2024-02-14T02:21:12;101081.59;;;4.98;100.00
51928;BME280;37953;52.806;18.270;2024-02-14T02:23:39;101079.91;;;4.98;100.00
51928;BME280;37953;52.806;18.270;2024-02-14T02:26:07;101086.75;;;4.98;100.00
51928;BME280;37953;52.806;18.270;2024-02-14T02:28:33;101077.31;;;4.98;100.00
51928;BME280;37953;52.806;18.270;2024-02-14T02:30:59;101082.53;;;5.00;100.00
51928;BME280;37953;52.806;18.270;2024-02-14T02:33:25;101081.59;;;4.98;100.00
51928;BME280;37953;52.806;18.270;2024-02-14T02:35:52;101081.59;;;4.98;100.00
51928;BME280;37953;52.806;18.270;2024-02-14T02:38:18;101074.59;;;4.94;100.00
51928;BME280;37953;52.806;18.270;2024-02-14T02:40:55;101078.03;;;4.94;100.00
51928;BME280;37953;52.806;18.270;2024-02-14T02:43:24;101089.13;;;4.93;100.00
51928;BME280;37953;52.806;18.270;2024-02-14T02:45:50;101079.69;;;4.92;100.00
51928;BME280;37953;52.806;18.270;2024-02-14T02:48:16;101088.34;;;4.94;100.00
51928;BME280;37953;52.806;18.270;2024-02-14T02:50:42;101090.03;;;4.94;100.00
51928;BME280;37953;52.806;18.270;2024-02-14T02:53:10;101089.13;;;4.93;100.00
51928;BME280;37953;52.806;18.270;2024-02-14T02:55:50;101090.06;;;4.95;100.00
51928;BME280;37953;52.806;18.270;2024-02-14T02:58:17;101077.94;;;4.91;100.00
51928;BME280;37953;52.806;18.270;2024-02-14T03:00:46;101087.41;;;4.92;100.00
51928;BME280;37953;52.806;18.270;2024-02-14T03:03:15;101090.81;;;4.91;100.00
51928;BME280;37953;52.806;18.270;2024-02-14T03:05:42;101083.03;;;4.89;100.00
51928;BME280;37953;52.806;18.270;2024-02-14T03:08:10;101085.53;;;4.88;100.00
51928;BME280;37953;52.806;18.270;2024-02-14T03:10:40;101082.47;;;4.98;100.00
51928;BME280;37953;52.806;18.270;2024-02-14T03:13:06;101086.53;;;4.92;100.00
51928;BME280;37953;52.806;18.270;2024-02-14T03:15:37;101089.91;;;4.90;100.00
51928;BME280;37953;52.806;18.270;2024-02-14T03:18:04;101088.13;;;4.88;100.00
51928;BME280;37953;52.806;18.270;2024-02-14T03:20:33;101082.09;;;4.87;100.00
51928;BME280;37953;52.806;18.270;2024-02-14T03:23:01;101090.63;;;4.86;100.00
51928;BME280;37953;52.806;18.270;2024-02-14T03:25:27;101086.31;;;4.85;100.00
51928;BME280;37953;52.806;18.270;2024-02-14T03:27:53;101092.25;;;4.84;100.00
51928;BME280;37953;52.806;18.270;2024-02-14T03:30:21;101089.59;;;4.81;100.00
51928;BME280;37953;52.806;18.270;2024-02-14T03:32:51;101092.03;;;4.78;100.00
51928;BME280;37953;52.806;18.270;2024-02-14T03:35:18;101098.09;;;4.79;100.00
51928;BME280;37953;52.806;18.270;2024-02-14T03:37:46;101094.44;;;4.72;100.00
51928;BME280;37953;52.806;18.270;2024-02-14T03:40:18;101100.50;;;4.74;100.00
51928;BME280;37953;52.806;18.270;2024-02-14T03:42:46;101098.66;;;4.72;100.00
51928;BME280;37953;52.806;18.270;2024-02-14T03:45:12;101097.72;;;4.69;100.00
51928;BME280;37953;52.806;18.270;2024-02-14T03:47:40;101100.22;;;4.66;100.00
51928;BME280;37953;52.806;18.270;2024-02-14T03:50:08;101108.72;;;4.65;100.00
51928;BME280;37953;52.806;18.270;2024-02-14T03:52:48;101107.06;;;4.66;100.00
51928;BME280;37953;52.806;18.270;2024-02-14T03:55:15;101101.72;;;4.61;100.00
51928;BME280;37953;52.806;18.270;2024-02-14T03:57:43;101117.13;;;4.60;100.00
51928;BME280;37953;52.806;18.270;2024-02-14T04:00:11;101114.38;;;4.55;100.00
51928;BME280;37953;52.806;18.270;2024-02-14T04:02:37;101112.56;;;4.53;100.00
51928;BME280;37953;52.806;18.270;2024-02-14T04:05:05;101111.63;;;4.51;100.00
51928;BME280;37953;52.806;18.270;2024-02-14T04:07:32;101105.53;;;4.48;100.00
51928;BME280;37953;52.806;18.270;2024-02-14T04:10:00;101109.00;;;4.49;100.00
51928;BME280;37953;52.806;18.270;2024-02-14T04:12:26;101114.09;;;4.47;100.00
51928;BME280;37953;52.806;18.270;2024-02-14T04:14:52;101116.66;;;4.47;100.00
51928;BME280;37953;52.806;18.270;2024-02-14T04:17:18;101119.16;;;4.46;100.00
51928;BME280;37953;52.806;18.270;2024-02-14T04:19:45;101118.19;;;4.42;100.00
51928;BME280;37953;52.806;18.270;2024-02-14T04:22:11;101125.91;;;4.42;100.00
51928;BME280;37953;52.806;18.270;2024-02-14T04:24:37;101126.72;;;4.41;100.00
51928;BME280;37953;52.806;18.270;2024-02-14T04:27:06;101131.84;;;4.41;100.00
51928;BME280;37953;52.806;18.270;2024-02-14T04:29:33;101122.41;;;4.40;100.00
51928;BME280;37953;52.806;18.270;2024-02-14T04:32:02;101115.56;;;4.41;100.00
51928;BME280;37953;52.806;18.270;2024-02-14T04:34:28;101123.28;;;4.41;100.00
51928;BME280;37953;52.806;18.270;2024-02-14T04:36:55;101120.63;;;4.39;100.00
51928;BME280;37953;52.806;18.270;2024-02-14T04:39:22;101118.94;;;4.40;100.00
51928;BME280;37953;52.806;18.270;2024-02-14T04:41:48;101122.34;;;4.39;100.00
51928;BME280;37953;52.806;18.270;2024-02-14T04:44:16;101118.81;;;4.37;100.00
51928;BME280;37953;52.806;18.270;2024-02-14T04:46:42;101117.97;;;4.36;100.00
51928;BME280;37953;52.806;18.270;2024-02-14T04:49:12;101118.75;;;4.35;100.00
51928;BME280;37953;52.806;18.270;2024-02-14T04:51:49;101118.75;;;4.35;100.00
51928;BME280;37953;52.806;18.270;2024-02-14T04:54:16;101117.06;;;4.36;100.00
51928;BME280;37953;52.806;18.270;2024-02-14T04:56:42;101107.53;;;4.33;100.00
51928;BME280;37953;52.806;18.270;2024-02-14T04:59:17;101121.34;;;4.35;100.00
51928;BME280;37953;52.806;18.270;2024-02-14T05:02:03;101117.06;;;4.36;100.00
51928;BME280;37953;52.806;18.270;2024-02-14T05:04:38;101118.69;;;4.34;100.00
51928;BME280;37953;52.806;18.270;2024-02-14T05:07:04;101116.00;;;4.31;100.00
51928;BME280;37953;52.806;18.270;2024-02-14T05:09:31;101121.97;;;4.29;100.00
51928;BME280;37953;52.806;18.270;2024-02-14T05:11:57;101121.03;;;4.27;100.00
51928;BME280;37953;52.806;18.270;2024-02-14T05:14:24;101123.56;;;4.26;100.00
51928;BME280;37953;52.806;18.270;2024-02-14T05:16:49;101127.84;;;4.25;100.00
51928;BME280;37953;52.806;18.270;2024-02-14T05:19:16;101129.50;;;4.25;100.00
51928;BME280;37953;52.806;18.270;2024-02-14T05:21:42;101117.41;;;4.22;100.00
51928;BME280;37953;52.806;18.270;2024-02-14T05:24:08;101125.13;;;4.22;100.00
51928;BME280;37953;52.806;18.270;2024-02-14T05:26:34;101118.28;;;4.23;100.00
51928;BME280;37953;52.806;18.270;2024-02-14T05:29:01;101116.59;;;4.23;100.00
51928;BME280;37953;52.806;18.270;2024-02-14T05:31:47;101121.09;;;4.29;100.00
51928;BME280;37953;52.806;18.270;2024-02-14T05:34:18;101118.00;;;4.38;100.00
51928;BME280;37953;52.806;18.270;2024-02-14T05:36:44;101121.22;;;4.32;100.00
51928;BME280;37953;52.806;18.270;2024-02-14T05:39:12;101116.81;;;4.29;100.00
51928;BME280;37953;52.806;18.270;2024-02-14T05:41:37;101121.03;;;4.27;100.00
51928;BME280;37953;52.806;18.270;2024-02-14T05:44:04;101119.28;;;4.26;100.00
51928;BME280;37953;52.806;18.270;2024-02-14T05:46:30;101124.34;;;4.25;100.00
51928;BME280;37953;52.806;18.270;2024-02-14T05:48:57;101125.19;;;4.24;100.00
51928;BME280;37953;52.806;18.270;2024-02-14T05:51:23;101128.56;;;4.23;100.00
51928;BME280;37953;52.806;18.270;2024-02-14T05:53:59;101134.41;;;4.19;100.00
51928;BME280;37953;52.806;18.270;2024-02-14T05:56:25;101130.09;;;4.18;100.00
51928;BME280;37953;52.806;18.270;2024-02-14T05:58:54;101134.16;;;4.13;100.00
51928;BME280;37953;52.806;18.270;2024-02-14T06:01:20;101128.91;;;4.10;100.00
51928;BME280;37953;52.806;18.270;2024-02-14T06:03:46;101132.16;;;4.05;100.00
51928;BME280;37953;52.806;18.270;2024-02-14T06:06:12;101125.16;;;4.01;100.00
51928;BME280;37953;52.806;18.270;2024-02-14T06:08:39;101126.72;;;3.98;100.00
51928;BME280;37953;52.806;18.270;2024-02-14T06:11:05;101127.38;;;3.92;100.00
51928;BME280;37953;52.806;18.270;2024-02-14T06:13:31;101128.94;;;3.88;100.00
51928;BME280;37953;52.806;18.270;2024-02-14T06:15:57;101133.03;;;3.83;100.00
51928;BME280;37953;52.806;18.270;2024-02-14T06:18:23;101133.69;;;3.79;100.00
51928;BME280;37953;52.806;18.270;2024-02-14T06:20:49;101134.50;;;3.78;100.00
51928;BME280;37953;52.806;18.270;2024-02-14T06:23:18;101146.47;;;3.78;100.00
51928;BME280;37953;52.806;18.270;2024-02-14T06:25:44;101138.59;;;3.73;100.00
51928;BME280;37953;52.806;18.270;2024-02-14T06:28:11;101135.94;;;3.72;100.00
51928;BME280;37953;52.806;18.270;2024-02-14T06:30:37;101141.00;;;3.70;100.00
51928;BME280;37953;52.806;18.270;2024-02-14T06:33:03;101137.47;;;3.66;100.00
51928;BME280;37953;52.806;18.270;2024-02-14T06:35:30;101139.13;;;3.66;100.00
51928;BME280;37953;52.806;18.270;2024-02-14T06:37:56;101140.75;;;3.64;100.00
51928;BME280;37953;52.806;18.270;2024-02-14T06:40:22;101145.91;;;3.64;100.00
51928;BME280;37953;52.806;18.270;2024-02-14T06:42:48;101146.66;;;3.61;100.00
51928;BME280;37953;52.806;18.270;2024-02-14T06:45:17;101150.09;;;3.62;100.00
51928;BME280;37953;52.806;18.270;2024-02-14T06:47:43;101152.81;;;3.65;100.00
51928;BME280;37953;52.806;18.270;2024-02-14T06:50:10;101151.09;;;3.65;100.00
51928;BME280;37953;52.806;18.270;2024-02-14T06:52:36;101151.09;;;3.65;100.00
51928;BME280;37953;52.806;18.270;2024-02-14T06:55:02;101155.38;;;3.65;100.00
51928;BME280;37953;52.806;18.270;2024-02-14T06:57:29;101151.09;;;3.65;100.00
51928;BME280;37953;52.806;18.270;2024-02-14T06:59:55;101151.97;;;3.66;100.00
51928;BME280;37953;52.806;18.270;2024-02-14T07:02:22;101151.09;;;3.65;100.00
51928;BME280;37953;52.806;18.270;2024-02-14T07:04:49;101156.31;;;3.67;100.00
51928;BME280;37953;52.806;18.270;2024-02-14T07:07:15;101149.63;;;3.71;100.00
51928;BME280;37953;52.806;18.270;2024-02-14T07:09:44;101147.09;;;3.72;100.00
51928;BME280;37953;52.806;18.270;2024-02-14T07:12:10;101150.59;;;3.74;100.00
51928;BME280;37953;52.806;18.270;2024-02-14T07:14:36;101151.44;;;3.73;100.00
51928;BME280;37953;52.806;18.270;2024-02-14T07:17:03;101153.25;;;3.76;100.00
51928;BME280;37953;52.806;18.270;2024-02-14T07:19:29;101155.06;;;3.78;100.00
51928;BME280;37953;52.806;18.270;2024-02-14T07:21:55;101152.50;;;3.78;100.00
51928;BME280;37953;52.806;18.270;2024-02-14T07:24:21;101159.50;;;3.82;100.00
51928;BME280;37953;52.806;18.270;2024-02-14T07:26:47;101160.47;;;3.84;100.00
51928;BME280;37953;52.806;18.270;2024-02-14T07:29:16;101156.34;;;3.88;100.00
51928;BME280;37953;52.806;18.270;2024-02-14T07:31:45;101152.25;;;3.93;100.00
51928;BME280;37953;52.806;18.270;2024-02-14T07:34:11;101145.63;;;3.98;100.00
51928;BME280;37953;52.806;18.270;2024-02-14T07:36:38;101154.25;;;4.00;100.00
51928;BME280;37953;52.806;18.270;2024-02-14T07:39:07;101144.00;;;4.02;100.00
51928;BME280;37953;52.806;18.270;2024-02-14T07:41:33;101153.59;;;4.06;100.00
51928;BME280;37953;52.806;18.270;2024-02-14T07:43:59;101144.25;;;4.08;100.00
51928;BME280;37953;52.806;18.270;2024-02-14T07:46:25;101155.56;;;4.12;100.00
51928;BME280;37953;52.806;18.270;2024-02-14T07:49:02;101153.09;;;4.15;100.00
51928;BME280;37953;52.806;18.270;2024-02-14T07:51:30;101152.38;;;4.17;100.00
51928;BME280;37953;52.806;18.270;2024-02-14T07:54:05;101150.78;;;4.21;100.00
51928;BME280;37953;52.806;18.270;2024-02-14T07:56:32;101150.03;;;4.23;100.00
51928;BME280;37953;52.806;18.270;2024-02-14T07:58:58;101144.94;;;4.25;100.00
51928;BME280;37953;52.806;18.270;2024-02-14T08:01:25;101147.69;;;4.29;100.00
51928;BME280;37953;52.806;18.270;2024-02-14T08:03:51;101152.09;;;4.32;100.00
51928;BME280;37953;52.806;18.270;2024-02-14T08:06:18;101148.75;;;4.35;100.00
51928;BME280;37953;52.806;18.270;2024-02-14T08:08:44;101148.84;;;4.38;100.00
51928;BME280;37953;52.806;18.270;2024-02-14T08:11:10;101151.56;;;4.41;100.00
51928;BME280;37953;52.806;18.270;2024-02-14T08:13:36;101147.38;;;4.43;100.00
51928;BME280;37953;52.806;18.270;2024-02-14T08:16:14;101146.66;;;4.47;100.00
51928;BME280;37953;52.806;18.270;2024-02-14T08:18:40;101149.34;;;4.50;100.00
51928;BME280;37953;52.806;18.270;2024-02-14T08:21:10;101146.00;;;4.53;100.00
51928;BME280;37953;52.806;18.270;2024-02-14T08:23:40;101153.78;;;4.54;100.00
51928;BME280;37953;52.806;18.270;2024-02-14T08:26:16;101156.44;;;4.56;100.00
51928;BME280;37953;52.806;18.270;2024-02-14T08:28:42;101150.56;;;4.60;100.00
51928;BME280;37953;52.806;18.270;2024-02-14T08:31:12;101154.09;;;4.62;100.00
51928;BME280;37953;52.806;18.270;2024-02-14T08:33:38;101149.03;;;4.65;100.00
51928;BME280;37953;52.806;18.270;2024-02-14T08:36:05;101141.44;;;4.68;100.00
51928;BME280;37953;52.806;18.270;2024-02-14T08:38:33;101148.47;;;4.72;100.00
51928;BME280;37953;52.806;18.270;2024-02-14T08:41:01;101145.16;;;4.76;100.00
51928;BME280;37953;52.806;18.270;2024-02-14T08:43:29;101146.16;;;4.80;100.00
51928;BME280;37953;52.806;18.270;2024-02-14T08:45:55;101140.25;;;4.82;100.00
51928;BME280;37953;52.806;18.270;2024-02-14T08:48:26;101136.09;;;4.86;100.00
51928;BME280;37953;52.806;18.270;2024-02-14T08:50:55;101131.88;;;4.88;100.00
51928;BME280;37953;52.806;18.270;2024-02-14T08:53:21;101136.31;;;4.92;100.00
51928;BME280;37953;52.806;18.270;2024-02-14T08:55:48;101130.41;;;4.95;100.00
51928;BME280;37953;52.806;18.270;2024-02-14T08:58:14;101127.94;;;4.98;100.00
51928;BME280;37953;52.806;18.270;2024-02-14T09:00:40;101136.59;;;5.00;100.00
51928;BME280;37953;52.806;18.270;2024-02-14T09:03:06;101143.56;;;5.02;100.00
51928;BME280;37953;52.806;18.270;2024-02-14T09:05:34;101137.56;;;5.03;100.00
51928;BME280;37953;52.806;18.270;2024-02-14T09:08:01;101145.38;;;5.05;100.00
51928;BME280;37953;52.806;18.270;2024-02-14T09:10:27;101142.78;;;5.05;100.00
51928;BME280;37953;52.806;18.270;2024-02-14T09:12:53;101141.16;;;5.07;100.00
51928;BME280;37953;52.806;18.270;2024-02-14T09:15:20;101138.63;;;5.08;100.00
51928;BME280;37953;52.806;18.270;2024-02-14T09:17:47;101145.53;;;5.09;100.00
51928;BME280;37953;52.806;18.270;2024-02-14T09:20:13;101137.84;;;5.11;100.00
51928;BME280;37953;52.806;18.270;2024-02-14T09:22:40;101130.13;;;5.11;100.00
51928;BME280;37953;52.806;18.270;2024-02-14T09:25:09;101129.41;;;5.15;100.00
51928;BME280;37953;52.806;18.270;2024-02-14T09:27:35;101141.47;;;5.16;100.00
51928;BME280;37953;52.806;18.270;2024-02-14T09:30:02;101130.34;;;5.17;100.00
51928;BME280;37953;52.806;18.270;2024-02-14T09:32:33;101133.94;;;5.21;100.00
51928;BME280;37953;52.806;18.270;2024-02-14T09:34:59;101132.28;;;5.23;100.00
51928;BME280;37953;52.806;18.270;2024-02-14T09:37:26;101134.03;;;5.24;100.00
51928;BME280;37953;52.806;18.270;2024-02-14T09:39:56;101140.19;;;5.29;100.00
51928;BME280;37953;52.806;18.270;2024-02-14T09:42:28;101148.91;;;5.33;100.00
51928;BME280;37953;52.806;18.270;2024-02-14T09:45:14;101133.59;;;5.36;100.00
51928;BME280;37953;52.806;18.270;2024-02-14T09:47:42;101135.44;;;5.40;100.00
51928;BME280;37953;52.806;18.270;2024-02-14T09:50:09;101132.03;;;5.41;100.00
51928;BME280;37953;52.806;18.270;2024-02-14T09:52:38;101130.44;;;5.44;100.00
51928;BME280;37953;52.806;18.270;2024-02-14T09:55:14;101133.22;;;5.50;100.00
51928;BME280;37953;52.806;18.270;2024-02-14T09:57:42;101132.44;;;5.53;100.00
51928;BME280;37953;52.806;18.270;2024-02-14T10:00:10;101136.88;;;5.57;100.00
51928;BME280;37953;52.806;18.270;2024-02-14T10:02:36;101134.47;;;5.62;100.00
51928;BME280;37953;52.806;18.270;2024-02-14T10:05:13;101130.31;;;5.67;100.00
51928;BME280;37953;52.806;18.270;2024-02-14T10:07:43;101125.34;;;5.71;100.00
51928;BME280;37953;52.806;18.270;2024-02-14T10:10:10;101131.50;;;5.77;100.00
51928;BME280;37953;52.806;18.270;2024-02-14T10:12:47;101122.28;;;5.83;100.00
51928;BME280;37953;52.806;18.270;2024-02-14T10:15:13;101119.84;;;5.88;100.00
51928;BME280;37953;52.806;18.270;2024-02-14T10:17:39;101117.41;;;5.92;100.00
51928;BME280;37953;52.806;18.270;2024-02-14T10:20:09;101111.53;;;5.97;100.00
51928;BME280;37953;52.806;18.270;2024-02-14T10:22:37;101119.47;;;6.01;100.00
51928;BME280;37953;52.806;18.270;2024-02-14T10:25:04;101111.81;;;6.04;100.00
51928;BME280;37953;52.806;18.270;2024-02-14T10:27:38;101115.38;;;6.09;100.00
51928;BME280;37953;52.806;18.270;2024-02-14T10:30:08;101122.41;;;6.14;100.00
51928;BME280;37953;52.806;18.270;2024-02-14T10:32:36;101109.59;;;6.17;100.00
51928;BME280;37953;52.806;18.270;2024-02-14T10:35:22;101104.66;;;6.23;100.00
51928;BME280;37953;52.806;18.270;2024-02-14T10:37:49;101097.81;;;6.25;100.00
51928;BME280;37953;52.806;18.270;2024-02-14T10:40:15;101091.03;;;6.28;100.00
51928;BME280;37953;52.806;18.270;2024-02-14T10:42:41;101100.63;;;6.32;100.00
51928;BME280;37953;52.806;18.270;2024-02-14T10:45:08;101101.59;;;6.36;100.00
51928;BME280;37953;52.806;18.270;2024-02-14T10:47:35;101107.75;;;6.41;100.00
51928;BME280;37953;52.806;18.270;2024-02-14T10:50:04;101098.34;;;6.42;100.00
51928;BME280;37953;52.806;18.270;2024-02-14T10:52:36;101099.25;;;6.44;100.00
51928;BME280;37953;52.806;18.270;2024-02-14T10:55:04;101093.31;;;6.46;100.00
51928;BME280;37953;52.806;18.270;2024-02-14T10:57:34;101094.22;;;6.48;100.00
51928;BME280;37953;52.806;18.270;2024-02-14T11:00:02;101088.38;;;6.54;100.00
51928;BME280;37953;52.806;18.270;2024-02-14T11:02:40;101091.81;;;6.55;100.00
51928;BME280;37953;52.806;18.270;2024-02-14T11:05:14;101088.50;;;6.59;100.00
51928;BME280;37953;52.806;18.270;2024-02-14T11:07:47;101089.50;;;6.64;100.00
51928;BME280;37953;52.806;18.270;2024-02-14T11:10:16;101087.03;;;6.68;100.00
51928;BME280;37953;52.806;18.270;2024-02-14T11:12:43;101087.16;;;6.71;100.00
51928;BME280;37953;52.806;18.270;2024-02-14T11:15:19;101086.41;;;6.76;100.00
51928;BME280;37953;52.806;18.270;2024-02-14T11:17:46;101093.34;;;6.78;100.00
51928;BME280;37953;52.806;18.270;2024-02-14T11:23:21;101076.31;;;6.85;100.00
51928;BME280;37953;52.806;18.270;2024-02-14T11:25:50;101077.25;;;6.87;100.00
51928;BME280;37953;52.806;18.270;2024-02-14T11:28:18;101070.28;;;6.84;100.00
51928;BME280;37953;52.806;18.270;2024-02-14T11:30:47;101066.97;;;6.90;100.00
51928;BME280;37953;52.806;18.270;2024-02-14T11:33:23;101065.28;;;6.90;100.00
51928;BME280;37953;52.806;18.270;2024-02-14T11:35:51;101063.63;;;6.92;100.00
51928;BME280;37953;52.806;18.270;2024-02-14T11:38:22;101065.34;;;6.93;100.00
51928;BME280;37953;52.806;18.270;2024-02-14T11:40:54;101061.13;;;6.96;100.00
51928;BME280;37953;52.806;18.270;2024-02-14T11:43:24;101054.22;;;6.95;100.00
51928;BME280;37953;52.806;18.270;2024-02-14T11:45:50;101049.91;;;6.95;100.00
51928;BME280;37953;52.806;18.270;2024-02-14T11:48:18;101044.75;;;6.95;100.00
51928;BME280;37953;52.806;18.270;2024-02-14T11:50:52;101050.78;;;6.96;100.00
51928;BME280;37953;52.806;18.270;2024-02-14T11:53:28;101046.53;;;6.98;100.00
51928;BME280;37953;52.806;18.270;2024-02-14T11:56:07;101037.13;;;7.00;100.00
51928;BME280;37953;52.806;18.270;2024-02-14T11:58:33;101046.66;;;7.02;100.00
51928;BME280;37953;52.806;18.270;2024-02-14T12:01:03;101039.81;;;7.04;100.00
51928;BME280;37953;52.806;18.270;2024-02-14T12:03:31;101045.03;;;7.06;100.00
51928;BME280;37953;52.806;18.270;2024-02-14T12:05:58;101029.56;;;7.07;100.00
51928;BME280;37953;52.806;18.270;2024-02-14T12:08:24;101033.94;;;7.10;100.00
51928;BME280;37953;52.806;18.270;2024-02-14T12:10:50;101030.56;;;7.12;100.00
51928;BME280;37953;52.806;18.270;2024-02-14T12:13:28;101034.09;;;7.16;100.00
51928;BME280;37953;52.806;18.270;2024-02-14T12:16:28;101023.84;;;7.19;100.00
51928;BME280;37953;52.806;18.270;2024-02-14T12:19:14;101028.25;;;7.23;100.00
51928;BME280;37953;52.806;18.270;2024-02-14T12:21:42;101020.47;;;7.22;100.00
51928;BME280;37953;52.806;18.270;2024-02-14T12:24:12;101024.91;;;7.27;100.00
51928;BME280;37953;52.806;18.270;2024-02-14T12:26:40;101020.66;;;7.29;100.00
51928;BME280;37953;52.806;18.270;2024-02-14T12:29:08;101018.94;;;7.30;100.00
51928;BME280;37953;52.806;18.270;2024-02-14T12:31:46;101023.31;;;7.32;100.00
51928;BME280;37953;52.806;18.270;2024-02-14T12:34:12;101020.75;;;7.34;100.00
51928;BME280;37953;52.806;18.270;2024-02-14T12:36:39;101021.66;;;7.36;100.00
51928;BME280;37953;52.806;18.270;2024-02-14T12:39:05;101013.09;;;7.39;100.00
51928;BME280;37953;52.806;18.270;2024-02-14T12:41:32;101014.06;;;7.42;100.00
51928;BME280;37953;52.806;18.270;2024-02-14T12:44:01;101011.56;;;7.45;100.00
51928;BME280;37953;52.806;18.270;2024-02-14T12:46:27;101010.81;;;7.49;100.00
51928;BME280;37953;52.806;18.270;2024-02-14T12:48:54;101003.13;;;7.52;100.00